ASN logo
ASN Wikibase Occurrence # 228863
Last updated: 14 September 2021
This information is added by users of ASN. Neither ASN nor the Flight Safety Foundation are responsible for the completeness or correctness of this information. If you feel this information is incomplete or incorrect, you can submit corrected information.

Date:10-SEP-2019
Time:11:45
Type:Pipistrel Panthera 152
Owner/operator:SVP AVIO Ltd.
Registration: S5-MTR
MSN: PX1520002
Fatalities:Fatalities: 0 / Occupants: 3
Other fatalities:0
Aircraft damage: Minor
Category:Accident
Location:Portorož Airport (POW/LJPZ) -   Slovenia
Phase: Landing
Nature:Test
Departure airport:Portorož Airport (POW/LJPZ)
Destination airport:Portorož Airport (POW/LJPZ)
Narrative:
A prototype of the Pipistrel Panthera 152 made a belly landing during a test flightat at Portorož Airport (POW/LJPZ).
The reason of the accident is not known yet. The airport was closed for traffic till the removal of the aircraft from the runway.
Aircraft damage is relative minor and one was injured.
Weather at LJPZ when the accident happened:
LJPZ 101000Z 29004KT 260V330 CAVOK 24/12 Q1017
LJPZ 100930Z 30004KT 260V340 CAVOK 23/13 Q1017

V. CONCLUSIONS
Direct cause
Impact of the airplane with a runway during landing, without landing gear extended.
Indirect cause
Poor execution of procedures for lowering the landing gear according to the prescribed checklist during the preparation phase for landing. Insufficient check of the Landing gear position indication (also visual conformation Landing gear selector switch position selection prior to landing).

Sources:

https://sierra5.net/novice-novo/novice/item/3379-v-portorozu-letalo-pristalo-na-trupu?fbclid=IwAR3LCAyTzfcZokMpHZl-sSeVydXRic5Vy0-_usPgZz_XhPN8Lp39VYgBL78

https://www.jetphotos.com/photo/9095413 (photo)
https://www.gov.si/assets/ministrstva/MzI/Dokumenti/letalstvo/POROCILA-2019/PANTHERA_ENG.pdf

Accident investigation:
cover
  
Investigating agency: 
Status: Investigation completed
Duration:
Download report: Final report


Revision history:

Date/timeContributorUpdates
10-Sep-2019 11:48 valuk Added
10-Sep-2019 12:46 RobertMB Updated [Aircraft type, Location, Source, Damage, Narrative]
10-Sep-2019 13:56 Anon. Updated [Operator, Nature]
10-Sep-2019 15:12 RobertMB Updated [Aircraft type, Operator, Location, Nature, Source, Damage, Narrative]
10-Sep-2019 15:13 RobertMB Updated [Source]
10-Sep-2019 18:29 harro Updated [Operator, Total occupants]
26-Oct-2020 07:30 KagurazakaHanayo Updated [Departure airport, Source, Narrative]
26-Oct-2020 07:31 harro Updated [Operator, Accident report]

Corrections or additions? ... Edit this accident description